Time;durP1;ratioP1;P1;durP2;ratioP2;P2;SDS_P1;SDS_P2;PMS_P1;PMS_P2;Temp;Humidity;BMP_temperature;BMP_pressure;BME280_temperature;BME280_humidity;BME280_pressure;Samples;Min_cycle;Max_cycle;Signal;HPM_P1;HPM_P2
2022/01/29 00:01:26;;;;;;;16.10;6.10;;;;;;;0.46;77.79;99499.14;106007;1272;99278;-69
2022/01/29 00:03:54;;;;;;;15.80;4.90;;;;;;;0.45;77.76;99501.95;106028;1274;96618;-70
2022/01/29 00:06:22;;;;;;;15.90;5.00;;;;;;;0.42;77.52;99509.00;106093;1274;112305;-70
2022/01/29 00:08:52;;;;;;;18.40;5.10;;;;;;;0.41;77.74;99509.05;106114;1273;99901;-70
2022/01/29 00:11:26;;;;;;;14.90;5.10;;;;;;;0.41;77.67;99509.38;106076;1274;108312;-70
2022/01/29 00:13:54;;;;;;;17.90;4.80;;;;;;;0.41;77.78;99514.64;106085;1274;99188;-71
2022/01/29 00:16:22;;;;;;;13.20;4.10;;;;;;;0.39;77.67;99519.91;106039;1274;96533;-72
2022/01/29 00:18:50;;;;;;;16.20;4.50;;;;;;;0.39;77.57;99521.13;106078;1274;112299;-70
2022/01/29 00:21:18;;;;;;;13.80;4.70;;;;;;;0.39;77.58;99524.44;106018;1274;98033;-71
2022/01/29 00:23:46;;;;;;;12.00;4.20;;;;;;;0.39;77.73;99532.29;106125;1274;106195;-70
2022/01/29 00:26:16;;;;;;;16.90;5.70;;;;;;;0.40;77.51;99532.27;106125;1273;99170;-69
2022/01/29 00:28:44;;;;;;;17.90;4.60;;;;;;;0.40;77.63;99535.40;106171;1274;99799;-70
2022/01/29 00:31:14;;;;;;;12.60;4.10;;;;;;;0.39;77.63;99537.00;106083;1274;113397;-69
2022/01/29 00:33:41;;;;;;;12.30;3.80;;;;;;;0.40;77.67;99537.67;105941;1274;99251;-68
2022/01/29 00:36:09;;;;;;;15.10;4.10;;;;;;;0.40;77.60;99539.08;106044;1274;110011;-70
2022/01/29 00:38:38;;;;;;;15.30;4.00;;;;;;;0.41;77.67;99543.77;106186;1274;99215;-70
2022/01/29 00:41:06;;;;;;;11.40;4.50;;;;;;;0.41;77.60;99544.64;106126;1274;99807;-69
2022/01/29 00:43:34;;;;;;;18.80;5.00;;;;;;;0.42;77.75;99549.64;106060;1274;112748;-70
2022/01/29 00:46:02;;;;;;;15.80;4.70;;;;;;;0.44;77.53;99554.66;106020;1274;99300;-69
2022/01/29 00:48:30;;;;;;;15.40;4.80;;;;;;;0.43;77.46;99553.83;106015;1274;108310;-69
2022/01/29 00:51:02;;;;;;;13.90;4.60;;;;;;;0.42;77.49;99554.20;106077;1274;99240;-69
2022/01/29 00:53:30;;;;;;;14.80;4.80;;;;;;;0.42;77.53;99561.17;106039;1274;97975;-68
2022/01/29 00:55:58;;;;;;;15.00;4.10;;;;;;;0.42;77.54;99564.48;106104;1274;112488;-69
2022/01/29 00:58:26;;;;;;;15.20;5.20;;;;;;;0.43;77.54;99565.01;106083;1274;99249;-68
2022/01/29 01:00:54;;;;;;;16.00;4.90;;;;;;;0.44;77.58;99564.46;105998;1274;108213;-70
2022/01/29 01:03:22;;;;;;;15.10;4.50;;;;;;;0.44;77.64;99568.63;105959;1274;99214;-70
2022/01/29 01:05:50;;;;;;;14.10;4.60;;;;;;;0.44;77.62;99565.33;106029;1274;99309;-68
2022/01/29 01:08:18;;;;;;;15.40;5.20;;;;;;;0.45;77.57;99564.60;106037;1274;113381;-69
2022/01/29 01:10:46;;;;;;;14.00;4.20;;;;;;;0.45;77.79;99566.35;106053;1274;99502;-69
2022/01/29 01:13:14;;;;;;;12.80;4.00;;;;;;;0.46;77.74;99568.95;106156;1274;107189;-69
2022/01/29 01:15:43;;;;;;;15.80;4.10;;;;;;;0.44;77.51;99570.88;106090;1274;99319;-69
2022/01/29 01:18:11;;;;;;;12.50;5.30;;;;;;;0.44;77.59;99568.98;106454;1274;99212;-67
2022/01/29 01:20:40;;;;;;;11.90;4.20;;;;;;;0.42;77.39;99573.38;106160;1274;112664;-68
2022/01/29 01:23:08;;;;;;;13.20;3.40;;;;;;;0.40;77.46;99579.02;106171;1274;96551;-68
2022/01/29 01:25:36;;;;;;;10.90;3.70;;;;;;;0.40;77.40;99580.25;106046;1274;108340;-69
2022/01/29 01:28:04;;;;;;;10.00;3.40;;;;;;;0.40;77.26;99581.99;106064;1274;96612;-69
2022/01/29 01:30:36;;;;;;;18.70;4.10;;;;;;;0.38;77.31;99579.95;106093;1274;99296;-68
2022/01/29 01:33:06;;;;;;;11.90;3.40;;;;;;;0.38;77.27;99584.83;106097;1273;112030;-68
2022/01/29 01:35:41;;;;;;;13.20;4.40;;;;;;;0.37;77.21;99584.16;106135;1273;99255;-68
2022/01/29 01:38:16;;;;;;;15.90;4.30;;;;;;;0.35;77.23;99581.25;106193;1274;107714;-65
2022/01/29 01:40:51;;;;;;;11.90;4.20;;;;;;;0.34;77.44;99577.08;106122;1274;99370;-69
2022/01/29 01:43:22;;;;;;;11.80;3.40;;;;;;;0.33;77.25;99579.02;106158;1274;99163;-69
2022/01/29 01:45:51;;;;;;;12.70;4.10;;;;;;;0.31;77.21;99582.37;106117;1274;113372;-68
2022/01/29 01:48:20;;;;;;;13.60;3.70;;;;;;;0.30;77.16;99582.92;106060;1274;99414;-67
2022/01/29 01:50:50;;;;;;;18.40;4.40;;;;;;;0.27;77.03;99581.58;106082;1274;107815;-68
2022/01/29 01:53:21;;;;;;;12.90;3.70;;;;;;;0.24;77.12;99582.17;106069;1274;99277;-69
2022/01/29 01:56:00;;;;;;;20.30;5.90;;;;;;;0.19;77.04;99581.95;106135;1274;99142;-71
2022/01/29 01:58:29;;;;;;;14.40;4.40;;;;;;;0.15;77.12;99582.89;106051;1274;112722;-68
2022/01/29 02:00:57;;;;;;;12.40;3.90;;;;;;;0.11;77.04;99582.11;106086;1274;99412;-69
2022/01/29 02:03:26;;;;;;;16.70;4.10;;;;;;;0.08;77.08;99586.70;106023;1274;108350;-69
2022/01/29 02:05:57;;;;;;;12.30;3.00;;;;;;;0.05;76.98;99589.55;106026;1274;99118;-67
2022/01/29 02:08:28;;;;;;;11.00;3.60;;;;;;;0.03;77.00;99589.41;105976;1274;99185;-67
2022/01/29 02:11:08;;;;;;;11.90;3.40;;;;;;;-0.00;77.00;99588.98;106083;1274;113076;-69
2022/01/29 02:13:36;;;;;;;16.60;3.80;;;;;;;-0.03;76.98;99588.34;105952;1274;99054;-69
2022/01/29 02:16:05;;;;;;;14.70;4.10;;;;;;;-0.06;77.02;99585.94;106054;1273;108013;-70
2022/01/29 02:18:34;;;;;;;15.90;4.10;;;;;;;-0.08;76.96;99583.21;106072;1274;99109;-68
2022/01/29 02:21:06;;;;;;;11.00;3.60;;;;;;;-0.11;76.98;99586.22;106200;1273;99367;-70
2022/01/29 02:23:37;;;;;;;12.70;3.60;;;;;;;-0.12;77.08;99586.08;107333;1273;113374;-70
2022/01/29 02:26:06;;;;;;;14.70;3.70;;;;;;;-0.13;76.86;99586.45;106101;1274;99126;-69
2022/01/29 02:28:38;;;;;;;10.30;3.10;;;;;;;-0.14;76.98;99591.87;106049;1273;107983;-69
2022/01/29 02:31:06;;;;;;;13.20;3.50;;;;;;;-0.16;76.82;99591.20;106070;1274;99385;-70
2022/01/29 02:33:40;;;;;;;13.30;4.30;;;;;;;-0.19;76.62;99589.70;106067;1274;96670;-70
2022/01/29 02:36:08;;;;;;;11.80;3.80;;;;;;;-0.23;76.91;99588.38;106055;1274;112665;-71
2022/01/29 02:38:36;;;;;;;12.00;3.80;;;;;;;-0.25;76.69;99588.59;106080;1272;99349;-69
2022/01/29 02:41:07;;;;;;;8.60;3.20;;;;;;;-0.27;76.65;99589.86;106023;1272;107473;-68
2022/01/29 02:43:46;;;;;;;12.90;3.70;;;;;;;-0.28;76.76;99596.50;106062;1274;97796;-68
2022/01/29 02:46:30;;;;;;;10.90;3.40;;;;;;;-0.27;76.79;99599.45;106132;1274;99302;-70
2022/01/29 02:48:59;;;;;;;14.40;3.50;;;;;;;-0.27;76.79;99605.73;106133;1274;111331;-71
2022/01/29 02:51:28;;;;;;;12.20;2.80;;;;;;;-0.28;76.65;99604.16;106073;1274;99303;-69
2022/01/29 02:53:55;;;;;;;9.10;2.70;;;;;;;-0.29;76.72;99603.32;106016;1274;108467;-69
2022/01/29 02:56:23;;;;;;;11.70;2.90;;;;;;;-0.34;76.48;99600.11;106059;1274;99329;-69
2022/01/29 02:58:51;;;;;;;11.50;3.50;;;;;;;-0.36;76.47;99605.20;106116;1274;99335;-69
2022/01/29 03:01:19;;;;;;;12.80;3.20;;;;;;;-0.42;76.23;99603.58;106118;1274;113275;-69
2022/01/29 03:03:48;;;;;;;10.30;2.90;;;;;;;-0.47;76.45;99599.48;106123;1274;99339;-69
2022/01/29 03:06:15;;;;;;;11.80;3.20;;;;;;;-0.51;76.51;99607.22;106036;1272;108596;-69
2022/01/29 03:08:44;;;;;;;11.30;3.40;;;;;;;-0.55;76.42;99606.23;106017;1274;99356;-67
2022/01/29 03:11:19;;;;;;;11.20;3.70;;;;;;;-0.59;76.19;99605.61;106141;1274;99305;-70
2022/01/29 03:13:47;;;;;;;;;;;;;;;-0.64;76.21;99603.81;106125;1274;112495;-70
2022/01/29 03:16:17;;;;;;;11.60;2.80;;;;;;;-0.69;76.37;99597.62;106109;1272;99190;-69
2022/01/29 03:18:52;;;;;;;7.40;2.10;;;;;;;-0.68;76.27;99594.98;102651;1311;636098;-67
2022/01/29 03:21:21;;;;;;;8.30;2.70;;;;;;;-0.74;76.17;99599.61;105068;1287;94373;-72
2022/01/29 03:23:49;;;;;;;7.50;2.30;;;;;;;-0.78;76.25;99596.38;105391;1284;94498;-69
2022/01/29 03:26:17;;;;;;;8.00;2.50;;;;;;;-0.81;75.92;99601.14;105382;1284;107979;-68
2022/01/29 03:28:46;;;;;;;8.90;2.30;;;;;;;-0.84;76.13;99603.11;105912;1276;94328;-67
2022/01/29 03:31:14;;;;;;;11.00;2.90;;;;;;;-0.85;76.18;99605.76;105916;1276;108589;-70
2022/01/29 03:33:43;;;;;;;10.50;2.50;;;;;;;-0.88;76.09;99607.90;105946;1274;111611;-68
2022/01/29 03:36:11;;;;;;;12.40;2.70;;;;;;;-0.92;76.18;99604.27;106089;1274;94307;-70
2022/01/29 03:38:40;;;;;;;10.10;2.60;;;;;;;-0.95;76.08;99603.98;106140;1273;108042;-70
2022/01/29 03:41:12;;;;;;;9.70;2.50;;;;;;;-0.95;76.12;99605.04;106174;1273;94512;-69
2022/01/29 03:43:45;;;;;;;7.50;2.30;;;;;;;-0.96;76.28;99600.17;106089;1273;107211;-70
2022/01/29 03:46:14;;;;;;;8.40;2.60;;;;;;;-0.96;76.06;99601.05;106044;1274;95373;-70
2022/01/29 03:48:43;;;;;;;9.90;2.90;;;;;;;-0.98;76.18;99599.16;106150;1275;94204;-68
2022/01/29 03:51:11;;;;;;;10.30;2.60;;;;;;;-0.99;76.14;99600.05;106065;1274;108772;-66
2022/01/29 03:53:39;;;;;;;9.50;3.10;;;;;;;-1.00;75.91;99599.02;106129;1275;95219;-70
2022/01/29 03:56:07;;;;;;;13.40;3.30;;;;;;;-1.01;75.93;99604.78;106091;1275;107228;-71
2022/01/29 03:58:34;;;;;;;9.30;3.00;;;;;;;-1.02;76.01;99608.64;106143;1275;95212;-70
2022/01/29 04:01:02;;;;;;;7.60;2.90;;;;;;;-1.02;75.95;99607.60;106106;1274;95169;-69
2022/01/29 04:03:30;;;;;;;8.10;3.10;;;;;;;-1.04;75.96;99608.33;106088;1274;108829;-70
2022/01/29 04:05:58;;;;;;;10.50;2.80;;;;;;;-1.06;75.77;99611.48;106087;1275;94244;-69
2022/01/29 04:08:26;;;;;;;9.80;3.10;;;;;;;-1.07;75.72;99611.85;106110;1274;108074;-71
2022/01/29 04:10:54;;;;;;;9.00;2.80;;;;;;;-1.10;75.83;99606.16;106076;1273;95256;-71
2022/01/29 04:13:25;;;;;;;12.90;4.00;;;;;;;-1.15;75.70;99607.80;106103;1273;95250;-72
2022/01/29 04:15:55;;;;;;;11.70;3.70;;;;;;;-1.17;75.96;99609.72;106072;1274;108866;-69
2022/01/29 04:18:25;;;;;;;8.80;3.10;;;;;;;-1.16;75.90;99605.38;106079;1274;95174;-70
2022/01/29 04:20:54;;;;;;;11.50;3.00;;;;;;;-1.17;75.83;99610.44;106046;1274;108381;-68
2022/01/29 04:23:22;;;;;;;9.90;3.20;;;;;;;-1.18;75.73;99612.73;106033;1274;95200;-69
2022/01/29 04:25:52;;;;;;;15.90;3.40;;;;;;;-1.19;75.53;99617.08;106033;1274;95162;-68
2022/01/29 04:28:29;;;;;;;11.20;3.40;;;;;;;-1.20;75.47;99615.01;105941;1272;109430;-70
2022/01/29 04:31:05;;;;;;;12.50;3.10;;;;;;;-1.21;75.88;99619.38;105970;1274;95163;-69
2022/01/29 04:33:34;;;;;;;9.00;2.60;;;;;;;-1.23;75.72;99619.23;105958;1274;107808;-69
2022/01/29 04:36:06;;;;;;;8.20;3.40;;;;;;;-1.23;75.82;99618.20;105955;1274;95294;-68
2022/01/29 04:38:34;;;;;;;14.30;3.60;;;;;;;-1.24;75.78;99619.09;106043;1273;95190;-69
2022/01/29 04:41:05;;;;;;;13.70;3.30;;;;;;;-1.26;75.54;99617.89;105893;1274;109369;-66
2022/01/29 04:43:36;;;;;;;11.50;3.20;;;;;;;-1.27;75.59;99619.48;106014;1273;95285;-63
2022/01/29 04:46:08;;;;;;;14.30;4.10;;;;;;;-1.28;75.62;99627.32;105972;1274;108350;-70
2022/01/29 04:48:36;;;;;;;11.70;3.40;;;;;;;-1.29;75.70;99624.73;105940;1274;95761;-70
2022/01/29 04:51:06;;;;;;;13.40;4.20;;;;;;;-1.29;75.86;99629.77;105976;1274;94972;-68
2022/01/29 04:53:34;;;;;;;13.80;4.20;;;;;;;-1.29;75.85;99631.01;106001;1274;108689;-70
2022/01/29 04:56:03;;;;;;;11.20;3.30;;;;;;;-1.31;75.73;99626.66;105940;1274;95241;-69
2022/01/29 04:58:33;;;;;;;13.30;4.20;;;;;;;-1.31;75.64;99631.55;105941;1273;108509;-69
2022/01/29 05:01:04;;;;;;;18.70;3.90;;;;;;;-1.32;75.55;99632.08;105969;1274;94256;-68
2022/01/29 05:03:34;;;;;;;13.60;3.80;;;;;;;-1.33;75.47;99634.19;106128;1273;95295;-69
2022/01/29 05:06:09;;;;;;;14.80;3.60;;;;;;;-1.35;75.59;99639.23;106003;1274;108336;-69
2022/01/29 05:08:38;;;;;;;14.50;3.30;;;;;;;-1.35;75.58;99640.81;106042;1273;95136;-68
2022/01/29 05:11:08;;;;;;;11.90;3.20;;;;;;;-1.37;75.40;99645.02;106003;1274;108447;-68
2022/01/29 05:13:39;;;;;;;12.70;4.00;;;;;;;-1.37;75.63;99645.36;105948;1274;95184;-67
2022/01/29 05:27:18;;;;;;;13.90;3.70;;;;;;;-1.36;75.39;99633.52;106012;1273;95195;-68
2022/01/29 05:29:46;;;;;;;12.80;3.90;;;;;;;-1.35;75.54;99628.11;106120;1273;95180;-67
2022/01/29 05:32:15;;;;;;;13.60;3.60;;;;;;;-1.33;75.69;99629.14;106041;1274;109324;-67
2022/01/29 05:34:44;;;;;;;19.00;4.70;;;;;;;-1.31;75.43;99625.29;105942;1274;95270;-68
2022/01/29 05:37:33;;;;;;;15.40;4.30;;;;;;;-1.30;75.10;99618.64;105987;1274;107758;-70
2022/01/29 05:40:03;;;;;;;15.50;4.20;;;;;;;-1.29;75.31;99616.55;106122;1274;95275;-70
2022/01/29 05:42:31;;;;;;;13.40;4.40;;;;;;;-1.29;75.44;99612.70;106048;1274;94388;-69
2022/01/29 05:45:00;;;;;;;13.90;5.00;;;;;;;-1.30;75.26;99606.98;106120;1274;109326;-69
2022/01/29 05:47:28;;;;;;;18.00;4.80;;;;;;;-1.31;75.22;99606.14;106101;1275;95001;-70
2022/01/29 05:49:57;;;;;;;15.20;5.00;;;;;;;-1.32;75.29;99612.94;106038;1275;108768;-72
2022/01/29 05:52:25;;;;;;;16.40;5.00;;;;;;;-1.33;75.31;99610.70;105985;1276;95133;-68
2022/01/29 05:54:54;;;;;;;20.50;5.50;;;;;;;-1.36;75.20;99607.41;106096;1275;94247;-70
2022/01/29 05:57:23;;;;;;;17.20;4.70;;;;;;;-1.37;75.22;99609.88;106096;1274;108522;-68
2022/01/29 05:59:52;;;;;;;19.10;5.20;;;;;;;-1.39;75.26;99615.11;106113;1273;95975;-69
2022/01/29 06:02:20;;;;;;;19.70;5.80;;;;;;;-1.40;75.26;99617.92;106128;1274;106534;-69
2022/01/29 06:04:49;;;;;;;21.00;5.50;;;;;;;-1.42;75.28;99617.61;105990;1275;94299;-69
2022/01/29 06:07:18;;;;;;;19.80;6.30;;;;;;;-1.44;75.15;99620.41;106072;1274;94507;-70
2022/01/29 06:09:48;;;;;;;22.50;6.10;;;;;;;-1.45;75.34;99620.96;106025;1273;109377;-71
2022/01/29 06:12:16;;;;;;;21.00;6.50;;;;;;;-1.47;75.17;99623.25;106097;1274;95227;-66
2022/01/29 06:14:44;;;;;;;18.20;5.30;;;;;;;-1.48;75.12;99624.66;106025;1275;108569;-71
2022/01/29 06:17:12;;;;;;;18.50;5.60;;;;;;;-1.49;75.25;99628.67;106047;1274;95259;-71
2022/01/29 06:19:41;;;;;;;20.80;6.10;;;;;;;-1.49;75.24;99630.23;106075;1273;95282;-71
2022/01/29 06:22:13;;;;;;;22.00;6.60;;;;;;;-1.51;75.24;99626.95;106139;1275;108853;-70
2022/01/29 06:24:41;;;;;;;20.20;6.00;;;;;;;-1.52;75.30;99627.13;106124;1274;95148;-70
2022/01/29 06:27:10;;;;;;;21.90;5.70;;;;;;;-1.53;74.93;99630.46;106037;1274;107840;-71
2022/01/29 06:29:39;;;;;;;22.90;6.30;;;;;;;-1.54;74.85;99632.21;106122;1274;95302;-69
2022/01/29 06:32:07;;;;;;;22.90;7.00;;;;;;;-1.56;75.25;99629.29;106084;1275;95158;-69
2022/01/29 06:34:35;;;;;;;21.20;7.10;;;;;;;-1.56;75.34;99634.85;106167;1273;108679;-71
2022/01/29 06:37:03;;;;;;;20.30;6.30;;;;;;;-1.56;75.17;99632.94;106102;1275;95348;-71
2022/01/29 06:39:31;;;;;;;18.80;6.00;;;;;;;-1.55;75.17;99633.79;105997;1273;106408;-69
2022/01/29 06:41:59;;;;;;;21.70;7.50;;;;;;;-1.55;74.98;99634.14;106050;1274;94359;-71
2022/01/29 06:44:27;;;;;;;21.80;7.80;;;;;;;-1.57;75.14;99628.95;106148;1274;95270;-71
2022/01/29 06:46:54;;;;;;;21.00;6.40;;;;;;;-1.56;74.77;99626.67;106125;1273;108607;-71
2022/01/29 06:49:22;;;;;;;22.00;7.30;;;;;;;-1.55;74.88;99623.18;106025;1273;95028;-68
2022/01/29 06:51:53;;;;;;;21.20;6.30;;;;;;;-1.55;74.99;99625.09;106093;1273;107548;-70
2022/01/29 06:54:21;;;;;;;20.90;7.20;;;;;;;-1.55;74.99;99629.61;105956;1274;95279;-68
2022/01/29 06:56:50;;;;;;;22.10;6.60;;;;;;;-1.55;75.10;99628.57;105990;1273;95321;-69
2022/01/29 06:59:18;;;;;;;26.40;8.60;;;;;;;-1.54;74.87;99628.04;106041;1273;108729;-70
2022/01/29 07:01:46;;;;;;;25.50;8.20;;;;;;;-1.52;75.36;99631.14;106058;1273;94378;-67
2022/01/29 07:04:14;;;;;;;25.20;7.60;;;;;;;-1.50;75.12;99626.07;105918;1273;107710;-70
2022/01/29 07:06:43;;;;;;;23.70;7.30;;;;;;;-1.48;75.12;99628.15;105817;1274;94338;-70
2022/01/29 07:09:11;;;;;;;21.80;6.50;;;;;;;-1.46;75.08;99632.99;105864;1274;95194;-70
2022/01/29 07:11:41;;;;;;;27.10;8.50;;;;;;;-1.45;75.05;99631.73;107867;1274;108775;-70
2022/01/29 07:14:15;;;;;;;21.90;6.50;;;;;;;-1.43;74.98;99632.06;107947;1273;93300;-70
2022/01/29 07:16:45;;;;;;;24.80;8.00;;;;;;;-1.38;74.91;99634.77;106958;1274;107739;-69
2022/01/29 07:19:13;;;;;;;25.30;8.30;;;;;;;-1.35;74.97;99630.02;106040;1274;94296;-70
2022/01/29 07:21:43;;;;;;;24.10;8.70;;;;;;;-1.32;75.21;99619.38;106106;1274;95892;-71
2022/01/29 07:24:10;;;;;;;24.40;7.90;;;;;;;-1.28;74.91;99617.05;106099;1274;108688;-70
2022/01/29 07:26:38;;;;;;;27.30;8.20;;;;;;;-1.26;74.95;99613.19;106105;1273;95157;-69
2022/01/29 07:29:06;;;;;;;29.20;9.30;;;;;;;-1.24;74.92;99604.13;106141;1274;108182;-71
2022/01/29 07:31:34;;;;;;;26.40;8.80;;;;;;;-1.22;74.91;99606.51;106147;1274;97633;-69
2022/01/29 07:34:02;;;;;;;29.40;9.30;;;;;;;-1.20;74.96;99607.70;106008;1274;95172;-69
2022/01/29 07:36:30;;;;;;;31.90;9.80;;;;;;;-1.16;74.98;99612.68;106026;1274;108704;-66
2022/01/29 07:38:58;;;;;;;25.90;8.70;;;;;;;-1.13;74.99;99607.26;106082;1275;96542;-71
2022/01/29 07:41:27;;;;;;;25.50;9.80;;;;;;;-1.12;74.97;99606.00;106015;1276;108343;-70
2022/01/29 07:43:56;;;;;;;25.00;8.20;;;;;;;-1.10;74.96;99603.70;106030;1274;96656;-69
2022/01/29 07:46:25;;;;;;;26.60;9.60;;;;;;;-1.08;75.06;99598.98;106116;1275;96518;-68
2022/01/29 07:48:53;;;;;;;29.40;9.40;;;;;;;-1.06;74.91;99590.77;105988;1274;109907;-69
2022/01/29 07:51:22;;;;;;;31.10;9.60;;;;;;;-1.02;75.07;99587.91;106011;1273;94257;-69
2022/01/29 07:53:50;;;;;;;27.50;11.10;;;;;;;-1.00;74.59;99581.77;106076;1275;108424;-70
2022/01/29 07:56:20;;;;;;;27.90;11.00;;;;;;;-0.98;75.04;99577.22;106017;1274;96533;-69
2022/01/29 07:58:51;;;;;;;29.30;10.00;;;;;;;-0.95;75.00;99576.13;106086;1274;96521;-70
2022/01/29 08:01:19;;;;;;;28.60;10.80;;;;;;;-0.92;75.02;99575.38;105982;1274;111632;-70
2022/01/29 08:03:50;;;;;;;24.80;9.50;;;;;;;-0.88;75.00;99576.89;105997;1274;94933;-71
2022/01/29 08:06:22;;;;;;;25.90;10.50;;;;;;;-0.83;74.62;99583.59;105960;1274;108382;-70
2022/01/29 08:08:50;;;;;;;25.90;10.20;;;;;;;-0.80;74.76;99587.37;105977;1275;96522;-70
2022/01/29 08:11:19;;;;;;;27.30;10.40;;;;;;;-0.77;74.50;99592.53;106012;1276;95423;-70
2022/01/29 08:13:47;;;;;;;27.90;10.00;;;;;;;-0.76;74.87;99586.59;106140;1274;109778;-72
2022/01/29 08:16:16;;;;;;;29.80;12.10;;;;;;;-0.72;74.67;99589.49;106012;1274;95032;-71
2022/01/29 08:18:46;;;;;;;30.70;11.50;;;;;;;-0.69;74.62;99589.60;106017;1274;108109;-70
2022/01/29 08:21:16;;;;;;;29.40;10.00;;;;;;;-0.66;74.91;99587.81;106008;1273;96613;-72
2022/01/29 08:23:45;;;;;;;26.60;10.20;;;;;;;-0.61;75.09;99582.66;106043;1274;96530;-71
2022/01/29 08:26:13;;;;;;;31.70;11.90;;;;;;;-0.55;74.98;99578.02;106035;1274;109277;-72
2022/01/29 08:28:41;;;;;;;29.20;11.20;;;;;;;-0.50;74.86;99578.29;105974;1275;95235;-72
2022/01/29 08:31:09;;;;;;;29.90;11.90;;;;;;;-0.43;74.93;99576.41;105953;1274;107833;-71
2022/01/29 08:33:38;;;;;;;31.60;11.60;;;;;;;-0.40;74.89;99571.64;105962;1275;96515;-70
2022/01/29 08:36:07;;;;;;;26.70;11.90;;;;;;;-0.32;74.95;99569.04;105808;1274;94237;-72
2022/01/29 08:38:36;;;;;;;29.60;11.50;;;;;;;-0.23;74.84;99564.86;105984;1274;109740;-72
2022/01/29 08:41:04;;;;;;;30.10;11.40;;;;;;;-0.16;74.99;99565.21;105959;1274;96477;-71
2022/01/29 08:43:33;;;;;;;30.20;13.80;;;;;;;-0.12;74.72;99565.85;105973;1274;107390;-72
2022/01/29 08:46:03;;;;;;;30.90;13.00;;;;;;;-0.10;74.80;99565.64;105874;1274;96539;-69
2022/01/29 08:48:32;;;;;;;33.20;14.10;;;;;;;-0.06;74.96;99569.23;105874;1274;96552;-69
2022/01/29 08:51:01;;;;;;;28.90;12.40;;;;;;;0.04;74.93;99568.14;105902;1273;110100;-70
2022/01/29 08:53:29;;;;;;;36.30;14.70;;;;;;;0.12;74.73;99566.56;105886;1275;96587;-72
2022/01/29 08:55:57;;;;;;;31.30;13.00;;;;;;;0.16;74.33;99563.34;105889;1274;107642;-71
2022/01/29 08:58:24;;;;;;;30.70;12.10;;;;;;;0.20;74.77;99557.48;105888;1274;96529;-72
2022/01/29 09:00:53;;;;;;;30.20;13.30;;;;;;;0.29;74.69;99557.29;105929;1273;96500;-71
2022/01/29 09:03:23;;;;;;;35.90;12.20;;;;;;;0.36;74.79;99551.20;105879;1274;110094;-71
2022/01/29 09:05:52;;;;;;;35.10;13.10;;;;;;;0.39;74.55;99549.40;105925;1274;94625;-71
2022/01/29 09:08:22;;;;;;;30.20;11.90;;;;;;;0.46;74.67;99547.48;105868;1274;107782;-71
2022/01/29 09:10:56;;;;;;;28.50;11.60;;;;;;;0.54;74.84;99549.73;105885;1274;94382;-72
2022/01/29 09:13:26;;;;;;;28.40;11.70;;;;;;;0.66;74.52;99548.94;106020;1274;96501;-70
2022/01/29 09:15:56;;;;;;;29.20;11.80;;;;;;;0.78;74.77;99551.43;105921;1275;110117;-71
2022/01/29 09:18:26;;;;;;;29.80;10.90;;;;;;;0.90;74.35;99554.96;105943;1276;96574;-69
2022/01/29 09:20:54;;;;;;;31.60;11.80;;;;;;;0.93;74.39;99551.95;105982;1274;109080;-70
2022/01/29 09:23:23;;;;;;;27.10;9.20;;;;;;;0.93;74.55;99546.89;105991;1274;96542;-70
2022/01/29 09:25:53;;;;;;;26.60;9.60;;;;;;;0.95;74.59;99547.17;106033;1274;94734;-70
2022/01/29 09:28:21;;;;;;;27.40;9.70;;;;;;;0.98;74.63;99546.39;105905;1274;110085;-69
2022/01/29 09:30:50;;;;;;;30.40;10.60;;;;;;;1.01;74.61;99545.95;105951;1274;96536;-71
2022/01/29 09:33:18;;;;;;;26.30;11.10;;;;;;;1.06;74.74;99544.78;105996;1274;107634;-74
2022/01/29 09:35:47;;;;;;;30.10;10.20;;;;;;;1.13;74.76;99541.48;106001;1274;96582;-70
2022/01/29 09:38:15;;;;;;;26.20;10.10;;;;;;;1.17;74.72;99540.67;106075;1274;96525;-69
2022/01/29 09:40:44;;;;;;;25.90;9.40;;;;;;;1.19;74.75;99539.73;105990;1274;110207;-73
2022/01/29 09:43:13;;;;;;;30.40;10.20;;;;;;;1.18;74.71;99536.08;106049;1274;96539;-76
2022/01/29 09:45:43;;;;;;;32.30;12.00;;;;;;;1.16;74.56;99530.37;106039;1274;107360;-73
2022/01/29 09:48:12;;;;;;;32.20;10.50;;;;;;;1.18;74.63;99529.63;105940;1274;97062;-74
2022/01/29 09:50:40;;;;;;;34.30;11.30;;;;;;;1.28;74.54;99525.67;105965;1274;96505;-72
2022/01/29 09:53:08;;;;;;;32.60;12.70;;;;;;;1.40;74.74;99519.44;105926;1274;109959;-72
2022/01/29 09:55:36;;;;;;;31.30;12.50;;;;;;;1.45;74.67;99507.57;105892;1274;96400;-70
2022/01/29 09:58:04;;;;;;;25.10;9.80;;;;;;;1.60;74.60;99509.61;105949;1274;107696;-72
2022/01/29 10:00:33;;;;;;;37.80;12.70;;;;;;;1.85;74.89;99509.06;105974;1274;94706;-72
2022/01/29 10:03:11;;;;;;;33.20;13.30;;;;;;;2.07;74.98;99502.27;105892;1274;94325;-73
2022/01/29 10:05:45;;;;;;;30.80;11.80;;;;;;;2.23;75.10;99502.84;105926;1274;110018;-73
2022/01/29 10:08:15;;;;;;;32.10;11.80;;;;;;;2.39;74.31;99501.28;106006;1274;96626;-74
2022/01/29 10:10:54;;;;;;;37.70;14.40;;;;;;;2.43;74.61;99496.60;105925;1274;107612;-74
2022/01/29 10:13:34;;;;;;;32.90;12.20;;;;;;;2.50;74.59;99493.55;105942;1273;95896;-73
2022/01/29 10:16:14;;;;;;;29.70;11.20;;;;;;;2.56;74.35;99490.75;105938;1274;96532;-74
2022/01/29 10:18:47;;;;;;;30.70;10.80;;;;;;;2.60;74.47;99491.50;105980;1274;110045;-73
2022/01/29 10:21:24;;;;;;;28.20;10.10;;;;;;;2.73;74.65;99488.80;105813;1274;97020;-73
2022/01/29 10:24:09;;;;;;;29.00;9.90;;;;;;;2.83;74.42;99488.29;105906;1274;108430;-72
2022/01/29 10:26:46;;;;;;;33.20;10.10;;;;;;;2.93;74.53;99487.77;105925;1274;96656;-73
2022/01/29 10:29:21;;;;;;;30.50;9.30;;;;;;;2.97;74.58;99482.36;105920;1274;96569;-72
2022/01/29 10:31:55;;;;;;;28.40;9.30;;;;;;;2.98;74.16;99480.41;105934;1274;110131;-72
2022/01/29 10:34:31;;;;;;;32.80;9.70;;;;;;;2.96;73.86;99482.05;105977;1274;94277;-73
2022/01/29 10:37:20;;;;;;;28.00;9.20;;;;;;;2.90;74.35;99474.73;105983;1274;107744;-72
2022/01/29 10:39:53;;;;;;;26.70;8.90;;;;;;;2.88;74.60;99462.00;106015;1274;96157;-74
2022/01/29 10:42:27;;;;;;;29.40;8.70;;;;;;;2.93;73.98;99453.44;105951;1274;96496;-71
2022/01/29 10:45:03;;;;;;;27.10;9.00;;;;;;;2.93;74.24;99442.56;105967;1274;109839;-72
2022/01/29 10:47:52;;;;;;;25.50;7.90;;;;;;;2.93;74.33;99443.61;105943;1274;96636;-75
2022/01/29 10:50:21;;;;;;;26.10;9.20;;;;;;;2.99;74.26;99440.09;105932;1274;107531;-75
2022/01/29 10:52:48;;;;;;;30.10;9.10;;;;;;;3.03;74.32;99430.31;105900;1274;95635;-74
2022/01/29 10:55:16;;;;;;;24.70;8.10;;;;;;;3.13;74.37;99432.91;105950;1274;94728;-77
2022/01/29 10:57:46;;;;;;;30.80;8.70;;;;;;;3.27;74.29;99436.27;105956;1274;109251;-75
2022/01/29 11:00:26;;;;;;;32.00;8.50;;;;;;;3.30;73.59;99429.17;105969;1274;96537;-75
2022/01/29 11:02:57;;;;;;;25.40;8.10;;;;;;;3.20;73.45;99417.42;105965;1274;106713;-74
2022/01/29 11:05:29;;;;;;;25.20;7.20;;;;;;;3.12;73.60;99420.31;105920;1274;95661;-74
2022/01/29 11:08:03;;;;;;;26.60;8.00;;;;;;;3.09;73.58;99419.04;105907;1274;96524;-71
2022/01/29 11:10:33;;;;;;;25.80;7.20;;;;;;;3.12;73.68;99403.88;105953;1274;109800;-72
2022/01/29 11:13:02;;;;;;;21.30;6.70;;;;;;;3.20;73.92;99399.91;105897;1274;95227;-72
2022/01/29 11:15:30;;;;;;;24.30;6.60;;;;;;;3.34;73.72;99401.48;105947;1274;107659;-72
2022/01/29 11:17:58;;;;;;;24.80;7.50;;;;;;;3.40;73.68;99395.31;105936;1274;96550;-74
2022/01/29 11:20:25;;;;;;;21.10;5.80;;;;;;;3.47;73.81;99395.57;105831;1275;95632;-73
2022/01/29 11:22:55;;;;;;;22.80;6.40;;;;;;;3.61;73.93;99391.17;105971;1274;109720;-73
2022/01/29 11:25:27;;;;;;;27.50;7.30;;;;;;;3.76;73.88;99379.21;106063;1274;96439;-73
2022/01/29 11:28:17;;;;;;;20.80;6.30;;;;;;;3.87;73.93;99375.25;106005;1274;107764;-75
2022/01/29 11:31:06;;;;;;;22.00;6.40;;;;;;;4.04;73.35;99375.45;105961;1275;96596;-73
2022/01/29 11:33:58;;;;;;;23.40;7.60;;;;;;;4.01;72.79;99373.45;106039;1274;96527;-74
2022/01/29 11:36:48;;;;;;;23.40;7.00;;;;;;;4.06;73.28;99373.60;105993;1274;109955;-73
2022/01/29 11:39:29;;;;;;;25.30;7.10;;;;;;;4.09;73.11;99363.13;106106;1274;96586;-75
2022/01/29 11:42:26;;;;;;;22.50;7.80;;;;;;;4.11;72.90;99358.67;105992;1274;108989;-74